sensor_id;sensor_type;location;lat;lon;timestamp;P1;durP1;ratioP1;P2;durP2;ratioP2
18610;SDS011;9435;52.122;5.502;2024-03-23T00:55:00;53.88;;;18.67;;
18610;SDS011;9435;52.122;5.502;2024-03-23T00:57:27;52.13;;;18.15;;
18610;SDS011;9435;52.122;5.502;2024-03-23T00:59:53;51.30;;;18.48;;
18610;SDS011;9435;52.122;5.502;2024-03-23T01:02:21;56.67;;;17.80;;
18610;SDS011;9435;52.122;5.502;2024-03-23T01:04:47;55.22;;;17.65;;
18610;SDS011;9435;52.122;5.502;2024-03-23T01:07:14;47.67;;;18.50;;
18610;SDS011;9435;52.122;5.502;2024-03-23T01:09:41;58.17;;;17.90;;
18610;SDS011;9435;52.122;5.502;2024-03-23T01:12:09;53.55;;;17.58;;
18610;SDS011;9435;52.122;5.502;2024-03-23T01:14:35;61.97;;;19.08;;
18610;SDS011;9435;52.122;5.502;2024-03-23T01:17:02;53.67;;;17.35;;
18610;SDS011;9435;52.122;5.502;2024-03-23T01:19:28;53.13;;;17.15;;
18610;SDS011;9435;52.122;5.502;2024-03-23T01:21:55;51.67;;;17.13;;
18610;SDS011;9435;52.122;5.502;2024-03-23T01:24:21;58.85;;;17.65;;
18610;SDS011;9435;52.122;5.502;2024-03-23T01:26:50;52.70;;;17.17;;
18610;SDS011;9435;52.122;5.502;2024-03-23T01:29:16;54.95;;;17.73;;
18610;SDS011;9435;52.122;5.502;2024-03-23T01:31:43;56.88;;;17.52;;
18610;SDS011;9435;52.122;5.502;2024-03-23T01:34:09;52.40;;;16.88;;
18610;SDS011;9435;52.122;5.502;2024-03-23T01:36:36;61.38;;;17.38;;
18610;SDS011;9435;52.122;5.502;2024-03-23T01:39:02;52.85;;;16.85;;
18610;SDS011;9435;52.122;5.502;2024-03-23T01:41:29;59.40;;;17.83;;
18610;SDS011;9435;52.122;5.502;2024-03-23T01:43:56;49.75;;;17.25;;
18610;SDS011;9435;52.122;5.502;2024-03-23T01:46:23;59.65;;;16.42;;
18610;SDS011;9435;52.122;5.502;2024-03-23T01:48:49;52.58;;;16.33;;
18610;SDS011;9435;52.122;5.502;2024-03-23T01:51:17;49.88;;;16.52;;
18610;SDS011;9435;52.122;5.502;2024-03-23T01:53:43;45.75;;;15.52;;
18610;SDS011;9435;52.122;5.502;2024-03-23T01:56:10;60.45;;;16.48;;
18610;SDS011;9435;52.122;5.502;2024-03-23T01:58:36;51.70;;;16.05;;
18610;SDS011;9435;52.122;5.502;2024-03-23T02:01:05;49.58;;;15.45;;
18610;SDS011;9435;52.122;5.502;2024-03-23T02:03:31;50.40;;;15.63;;
18610;SDS011;9435;52.122;5.502;2024-03-23T02:05:58;43.13;;;14.80;;
18610;SDS011;9435;52.122;5.502;2024-03-23T02:08:24;52.22;;;15.07;;
18610;SDS011;9435;52.122;5.502;2024-03-23T02:10:51;51.65;;;15.02;;
18610;SDS011;9435;52.122;5.502;2024-03-23T02:13:17;44.60;;;15.05;;
18610;SDS011;9435;52.122;5.502;2024-03-23T02:15:45;50.13;;;15.48;;
18610;SDS011;9435;52.122;5.502;2024-03-23T02:18:12;53.53;;;15.20;;
18610;SDS011;9435;52.122;5.502;2024-03-23T02:20:39;47.97;;;15.23;;
18610;SDS011;9435;52.122;5.502;2024-03-23T02:23:10;43.08;;;15.20;;
18610;SDS011;9435;52.122;5.502;2024-03-23T02:25:39;40.63;;;14.20;;
18610;SDS011;9435;52.122;5.502;2024-03-23T02:28:05;60.28;;;16.05;;
18610;SDS011;9435;52.122;5.502;2024-03-23T02:30:33;51.58;;;14.98;;
18610;SDS011;9435;52.122;5.502;2024-03-23T02:32:59;49.95;;;16.05;;
18610;SDS011;9435;52.122;5.502;2024-03-23T02:35:26;51.88;;;15.90;;
18610;SDS011;9435;52.122;5.502;2024-03-23T02:37:52;48.83;;;15.60;;
18610;SDS011;9435;52.122;5.502;2024-03-23T02:40:22;46.72;;;16.27;;
18610;SDS011;9435;52.122;5.502;2024-03-23T02:42:49;47.75;;;15.52;;
18610;SDS011;9435;52.122;5.502;2024-03-23T02:45:16;59.40;;;16.33;;
18610;SDS011;9435;52.122;5.502;2024-03-23T02:47:42;49.85;;;16.30;;
18610;SDS011;9435;52.122;5.502;2024-03-23T02:50:09;48.72;;;15.70;;
18610;SDS011;9435;52.122;5.502;2024-03-23T02:52:35;55.95;;;16.10;;
18610;SDS011;9435;52.122;5.502;2024-03-23T02:55:03;52.92;;;15.85;;
18610;SDS011;9435;52.122;5.502;2024-03-23T02:57:32;52.90;;;16.33;;
18610;SDS011;9435;52.122;5.502;2024-03-23T02:59:59;55.05;;;15.77;;
18610;SDS011;9435;52.122;5.502;2024-03-23T03:02:26;49.20;;;15.63;;
18610;SDS011;9435;52.122;5.502;2024-03-23T03:04:53;43.60;;;16.48;;
18610;SDS011;9435;52.122;5.502;2024-03-23T03:07:19;45.60;;;16.00;;
18610;SDS011;9435;52.122;5.502;2024-03-23T03:09:46;48.15;;;15.82;;
18610;SDS011;9435;52.122;5.502;2024-03-23T03:12:12;48.92;;;16.23;;
18610;SDS011;9435;52.122;5.502;2024-03-23T03:14:40;44.58;;;15.55;;
18610;SDS011;9435;52.122;5.502;2024-03-23T03:17:06;47.80;;;15.70;;
18610;SDS011;9435;52.122;5.502;2024-03-23T03:19:33;41.05;;;15.07;;
18610;SDS011;9435;52.122;5.502;2024-03-23T03:21:59;48.80;;;15.57;;
18610;SDS011;9435;52.122;5.502;2024-03-23T03:24:27;47.58;;;15.38;;
18610;SDS011;9435;52.122;5.502;2024-03-23T03:26:53;49.13;;;15.32;;
18610;SDS011;9435;52.122;5.502;2024-03-23T03:29:20;45.80;;;15.27;;
18610;SDS011;9435;52.122;5.502;2024-03-23T03:31:47;51.15;;;15.52;;
18610;SDS011;9435;52.122;5.502;2024-03-23T03:34:15;51.58;;;16.10;;
18610;SDS011;9435;52.122;5.502;2024-03-23T03:36:41;48.92;;;15.95;;
18610;SDS011;9435;52.122;5.502;2024-03-23T03:39:08;45.53;;;15.48;;
18610;SDS011;9435;52.122;5.502;2024-03-23T03:41:35;47.22;;;16.60;;
18610;SDS011;9435;52.122;5.502;2024-03-23T03:44:02;47.72;;;15.70;;
18610;SDS011;9435;52.122;5.502;2024-03-23T03:46:28;48.90;;;16.33;;
18610;SDS011;9435;52.122;5.502;2024-03-23T03:48:57;38.42;;;16.05;;
18610;SDS011;9435;52.122;5.502;2024-03-23T03:51:23;48.58;;;16.40;;
18610;SDS011;9435;52.122;5.502;2024-03-23T03:53:50;43.92;;;15.73;;
18610;SDS011;9435;52.122;5.502;2024-03-23T03:56:16;45.33;;;15.48;;
18610;SDS011;9435;52.122;5.502;2024-03-23T03:58:43;54.50;;;15.48;;
18610;SDS011;9435;52.122;5.502;2024-03-23T04:01:09;44.95;;;14.70;;
18610;SDS011;9435;52.122;5.502;2024-03-23T04:03:36;46.30;;;15.02;;
18610;SDS011;9435;52.122;5.502;2024-03-23T04:06:06;39.25;;;13.90;;
18610;SDS011;9435;52.122;5.502;2024-03-23T04:08:33;40.78;;;14.10;;
18610;SDS011;9435;52.122;5.502;2024-03-23T04:10:59;42.22;;;14.50;;
18610;SDS011;9435;52.122;5.502;2024-03-23T04:13:26;41.45;;;15.10;;
18610;SDS011;9435;52.122;5.502;2024-03-23T04:15:53;47.70;;;14.38;;
18610;SDS011;9435;52.122;5.502;2024-03-23T04:18:20;54.20;;;15.02;;
18610;SDS011;9435;52.122;5.502;2024-03-23T04:20:46;40.40;;;14.68;;
18610;SDS011;9435;52.122;5.502;2024-03-23T04:23:15;45.08;;;13.98;;
18610;SDS011;9435;52.122;5.502;2024-03-23T04:25:41;43.63;;;14.75;;
18610;SDS011;9435;52.122;5.502;2024-03-23T04:28:09;49.92;;;14.43;;
18610;SDS011;9435;52.122;5.502;2024-03-23T04:30:35;39.70;;;13.77;;
18610;SDS011;9435;52.122;5.502;2024-03-23T04:33:02;38.55;;;13.80;;
18610;SDS011;9435;52.122;5.502;2024-03-23T04:35:28;45.72;;;13.82;;
18610;SDS011;9435;52.122;5.502;2024-03-23T04:37:56;42.78;;;13.43;;
18610;SDS011;9435;52.122;5.502;2024-03-23T04:40:25;47.70;;;13.65;;
18610;SDS011;9435;52.122;5.502;2024-03-23T04:42:52;39.25;;;12.48;;
18610;SDS011;9435;52.122;5.502;2024-03-23T04:45:19;37.28;;;12.15;;
18610;SDS011;9435;52.122;5.502;2024-03-23T04:47:46;41.60;;;12.15;;
18610;SDS011;9435;52.122;5.502;2024-03-23T04:50:13;39.15;;;11.65;;
18610;SDS011;9435;52.122;5.502;2024-03-23T04:52:40;36.45;;;11.18;;
18610;SDS011;9435;52.122;5.502;2024-03-23T04:55:07;42.35;;;11.75;;
18610;SDS011;9435;52.122;5.502;2024-03-23T04:57:36;44.40;;;11.68;;
18610;SDS011;9435;52.122;5.502;2024-03-23T05:00:02;31.65;;;10.85;;
18610;SDS011;9435;52.122;5.502;2024-03-23T05:02:41;38.42;;;9.77;;
18610;SDS011;9435;52.122;5.502;2024-03-23T05:05:09;36.30;;;9.23;;
18610;SDS011;9435;52.122;5.502;2024-03-23T05:07:35;31.73;;;8.55;;
18610;SDS011;9435;52.122;5.502;2024-03-23T05:10:03;30.88;;;8.18;;
18610;SDS011;9435;52.122;5.502;2024-03-23T05:12:29;36.08;;;8.57;;
18610;SDS011;9435;52.122;5.502;2024-03-23T05:14:58;32.67;;;8.15;;
18610;SDS011;9435;52.122;5.502;2024-03-23T05:17:24;31.10;;;7.90;;
18610;SDS011;9435;52.122;5.502;2024-03-23T05:19:51;32.42;;;7.60;;
18610;SDS011;9435;52.122;5.502;2024-03-23T05:22:17;26.70;;;6.80;;
18610;SDS011;9435;52.122;5.502;2024-03-23T05:24:44;27.50;;;7.07;;
18610;SDS011;9435;52.122;5.502;2024-03-23T05:27:11;28.73;;;6.45;;
18610;SDS011;9435;52.122;5.502;2024-03-23T05:29:38;27.08;;;6.45;;
18610;SDS011;9435;52.122;5.502;2024-03-23T05:32:05;27.50;;;6.95;;
18610;SDS011;9435;52.122;5.502;2024-03-23T05:34:33;23.88;;;6.47;;
18610;SDS011;9435;52.122;5.502;2024-03-23T05:36:59;27.92;;;6.68;;
18610;SDS011;9435;52.122;5.502;2024-03-23T05:39:26;24.27;;;6.40;;
18610;SDS011;9435;52.122;5.502;2024-03-23T05:41:52;22.42;;;5.63;;
18610;SDS011;9435;52.122;5.502;2024-03-23T05:44:19;25.48;;;6.50;;
18610;SDS011;9435;52.122;5.502;2024-03-23T05:46:45;25.48;;;5.47;;
18610;SDS011;9435;52.122;5.502;2024-03-23T05:49:15;20.88;;;5.50;;
18610;SDS011;9435;52.122;5.502;2024-03-23T05:51:41;25.73;;;5.50;;
18610;SDS011;9435;52.122;5.502;2024-03-23T05:54:08;22.25;;;5.93;;
18610;SDS011;9435;52.122;5.502;2024-03-23T05:56:34;21.45;;;5.40;;
18610;SDS011;9435;52.122;5.502;2024-03-23T05:59:01;20.83;;;5.47;;
18610;SDS011;9435;52.122;5.502;2024-03-23T06:01:28;20.40;;;5.25;;
18610;SDS011;9435;52.122;5.502;2024-03-23T06:03:57;24.38;;;5.30;;
18610;SDS011;9435;52.122;5.502;2024-03-23T06:06:25;20.63;;;4.80;;
18610;SDS011;9435;52.122;5.502;2024-03-23T06:08:52;21.08;;;4.82;;
18610;SDS011;9435;52.122;5.502;2024-03-23T06:11:18;18.77;;;3.92;;
18610;SDS011;9435;52.122;5.502;2024-03-23T06:13:45;14.95;;;3.80;;
18610;SDS011;9435;52.122;5.502;2024-03-23T06:16:11;19.67;;;4.05;;
18610;SDS011;9435;52.122;5.502;2024-03-23T06:18:39;12.60;;;3.63;;
18610;SDS011;9435;52.122;5.502;2024-03-23T06:21:05;17.77;;;3.45;;
18610;SDS011;9435;52.122;5.502;2024-03-23T06:23:40;23.10;;;3.92;;
18610;SDS011;9435;52.122;5.502;2024-03-23T06:26:06;21.25;;;3.53;;
18610;SDS011;9435;52.122;5.502;2024-03-23T06:28:33;14.85;;;3.30;;
18610;SDS011;9435;52.122;5.502;2024-03-23T06:31:00;13.35;;;3.42;;
18610;SDS011;9435;52.122;5.502;2024-03-23T06:33:27;12.88;;;3.08;;
18610;SDS011;9435;52.122;5.502;2024-03-23T06:35:53;15.55;;;3.55;;
18610;SDS011;9435;52.122;5.502;2024-03-23T06:38:20;15.27;;;3.20;;
18610;SDS011;9435;52.122;5.502;2024-03-23T06:40:48;15.18;;;3.30;;
18610;SDS011;9435;52.122;5.502;2024-03-23T06:43:17;22.77;;;3.65;;
18610;SDS011;9435;52.122;5.502;2024-03-23T06:45:43;19.73;;;3.10;;
18610;SDS011;9435;52.122;5.502;2024-03-23T06:48:10;25.95;;;4.18;;
18610;SDS011;9435;52.122;5.502;2024-03-23T06:50:36;19.73;;;3.25;;
18610;SDS011;9435;52.122;5.502;2024-03-23T06:53:04;17.45;;;3.33;;
18610;SDS011;9435;52.122;5.502;2024-03-23T06:55:30;19.20;;;3.20;;
18610;SDS011;9435;52.122;5.502;2024-03-23T06:57:59;13.07;;;2.88;;
18610;SDS011;9435;52.122;5.502;2024-03-23T07:00:25;16.50;;;3.53;;
18610;SDS011;9435;52.122;5.502;2024-03-23T07:02:52;15.52;;;2.78;;
18610;SDS011;9435;52.122;5.502;2024-03-23T07:05:18;14.50;;;2.85;;
18610;SDS011;9435;52.122;5.502;2024-03-23T07:07:45;10.75;;;2.92;;
18610;SDS011;9435;52.122;5.502;2024-03-23T07:10:11;19.42;;;3.10;;
18610;SDS011;9435;52.122;5.502;2024-03-23T07:12:38;18.30;;;3.40;;
18610;SDS011;9435;52.122;5.502;2024-03-23T07:15:06;14.40;;;2.90;;
18610;SDS011;9435;52.122;5.502;2024-03-23T07:17:34;15.40;;;3.03;;
18610;SDS011;9435;52.122;5.502;2024-03-23T07:20:00;15.43;;;2.88;;
18610;SDS011;9435;52.122;5.502;2024-03-23T07:22:29;18.25;;;3.05;;
18610;SDS011;9435;52.122;5.502;2024-03-23T07:24:55;22.25;;;3.65;;
18610;SDS011;9435;52.122;5.502;2024-03-23T07:27:22;10.95;;;2.92;;
18610;SDS011;9435;52.122;5.502;2024-03-23T07:29:48;13.80;;;3.17;;
18610;SDS011;9435;52.122;5.502;2024-03-23T07:32:17;17.60;;;3.45;;
18610;SDS011;9435;52.122;5.502;2024-03-23T07:34:43;17.95;;;3.20;;
18610;SDS011;9435;52.122;5.502;2024-03-23T07:37:10;14.77;;;3.60;;
18610;SDS011;9435;52.122;5.502;2024-03-23T07:39:36;19.67;;;3.95;;
18610;SDS011;9435;52.122;5.502;2024-03-23T07:42:04;17.23;;;3.72;;
18610;SDS011;9435;52.122;5.502;2024-03-23T07:44:30;16.33;;;3.60;;
18610;SDS011;9435;52.122;5.502;2024-03-23T07:46:58;19.45;;;3.92;;
18610;SDS011;9435;52.122;5.502;2024-03-23T07:49:27;15.32;;;3.42;;
18610;SDS011;9435;52.122;5.502;2024-03-23T07:51:54;13.52;;;3.15;;
18610;SDS011;9435;52.122;5.502;2024-03-23T07:54:22;15.05;;;3.38;;
18610;SDS011;9435;52.122;5.502;2024-03-23T07:56:49;17.58;;;3.50;;
18610;SDS011;9435;52.122;5.502;2024-03-23T07:59:15;16.73;;;3.60;;
18610;SDS011;9435;52.122;5.502;2024-03-23T08:01:43;15.90;;;3.50;;
18610;SDS011;9435;52.122;5.502;2024-03-23T08:04:11;19.52;;;3.15;;
18610;SDS011;9435;52.122;5.502;2024-03-23T08:06:39;15.35;;;2.85;;
18610;SDS011;9435;52.122;5.502;2024-03-23T08:09:06;13.27;;;2.60;;
18610;SDS011;9435;52.122;5.502;2024-03-23T08:11:33;12.88;;;2.97;;
18610;SDS011;9435;52.122;5.502;2024-03-23T08:14:00;13.38;;;2.72;;
18610;SDS011;9435;52.122;5.502;2024-03-23T08:16:27;11.52;;;2.83;;
18610;SDS011;9435;52.122;5.502;2024-03-23T08:18:53;12.00;;;2.78;;
18610;SDS011;9435;52.122;5.502;2024-03-23T08:21:21;12.65;;;2.80;;
18610;SDS011;9435;52.122;5.502;2024-03-23T08:23:49;12.07;;;2.60;;
18610;SDS011;9435;52.122;5.502;2024-03-23T08:26:18;13.13;;;2.60;;
18610;SDS011;9435;52.122;5.502;2024-03-23T08:28:44;13.98;;;2.25;;
18610;SDS011;9435;52.122;5.502;2024-03-23T08:31:11;12.23;;;2.30;;
18610;SDS011;9435;52.122;5.502;2024-03-23T08:33:39;11.75;;;2.30;;
18610;SDS011;9435;52.122;5.502;2024-03-23T08:36:08;13.15;;;2.30;;
18610;SDS011;9435;52.122;5.502;2024-03-23T08:38:37;14.57;;;2.30;;
18610;SDS011;9435;52.122;5.502;2024-03-23T08:41:05;11.85;;;2.10;;
18610;SDS011;9435;52.122;5.502;2024-03-23T08:43:35;16.50;;;2.22;;
18610;SDS011;9435;52.122;5.502;2024-03-23T08:46:05;9.13;;;1.92;;
18610;SDS011;9435;52.122;5.502;2024-03-23T08:48:33;15.00;;;2.28;;
18610;SDS011;9435;52.122;5.502;2024-03-23T08:51:00;13.68;;;2.17;;
18610;SDS011;9435;52.122;5.502;2024-03-23T08:53:28;15.63;;;2.33;;
18610;SDS011;9435;52.122;5.502;2024-03-23T08:55:54;11.77;;;2.22;;
18610;SDS011;9435;52.122;5.502;2024-03-23T08:58:23;12.20;;;1.98;;
18610;SDS011;9435;52.122;5.502;2024-03-23T09:00:50;8.75;;;1.90;;
18610;SDS011;9435;52.122;5.502;2024-03-23T09:03:17;9.32;;;1.95;;
18610;SDS011;9435;52.122;5.502;2024-03-23T09:05:43;12.90;;;2.15;;
18610;SDS011;9435;52.122;5.502;2024-03-23T09:08:10;13.55;;;2.33;;
18610;SDS011;9435;52.122;5.502;2024-03-23T09:10:38;10.20;;;1.80;;
18610;SDS011;9435;52.122;5.502;2024-03-23T09:13:05;10.13;;;1.60;;
18610;SDS011;9435;52.122;5.502;2024-03-23T09:15:33;10.50;;;1.77;;
18610;SDS011;9435;52.122;5.502;2024-03-23T09:18:01;10.15;;;1.95;;
18610;SDS011;9435;52.122;5.502;2024-03-23T09:20:28;10.52;;;1.50;;
18610;SDS011;9435;52.122;5.502;2024-03-23T09:22:55;10.90;;;1.65;;
18610;SDS011;9435;52.122;5.502;2024-03-23T09:25:21;10.25;;;1.63;;
18610;SDS011;9435;52.122;5.502;2024-03-23T09:27:48;8.20;;;1.50;;
18610;SDS011;9435;52.122;5.502;2024-03-23T09:30:14;8.88;;;1.60;;
18610;SDS011;9435;52.122;5.502;2024-03-23T09:32:43;11.00;;;1.52;;
18610;SDS011;9435;52.122;5.502;2024-03-23T09:35:09;9.52;;;1.40;;
18610;SDS011;9435;52.122;5.502;2024-03-23T09:37:37;6.03;;;1.30;;
18610;SDS011;9435;52.122;5.502;2024-03-23T09:40:05;9.55;;;1.60;;
18610;SDS011;9435;52.122;5.502;2024-03-23T09:42:35;6.45;;;1.15;;
18610;SDS011;9435;52.122;5.502;2024-03-23T09:45:02;7.43;;;1.45;;
18610;SDS011;9435;52.122;5.502;2024-03-23T09:47:32;14.20;;;1.83;;
18610;SDS011;9435;52.122;5.502;2024-03-23T09:49:59;10.57;;;1.63;;
18610;SDS011;9435;52.122;5.502;2024-03-23T09:52:27;8.52;;;1.60;;
18610;SDS011;9435;52.122;5.502;2024-03-23T09:54:53;8.98;;;1.45;;
18610;SDS011;9435;52.122;5.502;2024-03-23T09:57:20;7.97;;;1.05;;
18610;SDS011;9435;52.122;5.502;2024-03-23T09:59:46;4.93;;;0.80;;
18610;SDS011;9435;52.122;5.502;2024-03-23T10:02:13;5.82;;;1.10;;
18610;SDS011;9435;52.122;5.502;2024-03-23T10:04:42;6.47;;;1.27;;
18610;SDS011;9435;52.122;5.502;2024-03-23T10:07:14;6.80;;;1.30;;
18610;SDS011;9435;52.122;5.502;2024-03-23T10:09:42;13.68;;;1.90;;
18610;SDS011;9435;52.122;5.502;2024-03-23T10:12:09;11.35;;;1.80;;
18610;SDS011;9435;52.122;5.502;2024-03-23T10:14:37;9.30;;;2.33;;
18610;SDS011;9435;52.122;5.502;2024-03-23T10:17:14;10.68;;;2.38;;
18610;SDS011;9435;52.122;5.502;2024-03-23T10:19:42;10.82;;;2.13;;
18610;SDS011;9435;52.122;5.502;2024-03-23T10:22:12;14.38;;;1.95;;
18610;SDS011;9435;52.122;5.502;2024-03-23T10:24:40;13.63;;;2.20;;
18610;SDS011;9435;52.122;5.502;2024-03-23T10:27:07;11.77;;;1.70;;
18610;SDS011;9435;52.122;5.502;2024-03-23T10:29:33;12.05;;;1.92;;
18610;SDS011;9435;52.122;5.502;2024-03-23T10:32:07;11.43;;;1.90;;
18610;SDS011;9435;52.122;5.502;2024-03-23T10:34:34;10.57;;;1.73;;
18610;SDS011;9435;52.122;5.502;2024-03-23T10:37:01;11.88;;;1.63;;
18610;SDS011;9435;52.122;5.502;2024-03-23T10:39:30;9.35;;;1.60;;
18610;SDS011;9435;52.122;5.502;2024-03-23T10:42:00;11.48;;;1.98;;
18610;SDS011;9435;52.122;5.502;2024-03-23T10:44:29;9.70;;;1.60;;
18610;SDS011;9435;52.122;5.502;2024-03-23T10:46:57;11.65;;;1.95;;
18610;SDS011;9435;52.122;5.502;2024-03-23T10:49:25;11.60;;;1.60;;
18610;SDS011;9435;52.122;5.502;2024-03-23T10:51:54;10.45;;;1.40;;
18610;SDS011;9435;52.122;5.502;2024-03-23T10:54:22;12.13;;;1.50;;
18610;SDS011;9435;52.122;5.502;2024-03-23T10:56:53;12.93;;;1.73;;
18610;SDS011;9435;52.122;5.502;2024-03-23T10:59:23;10.95;;;1.60;;
18610;SDS011;9435;52.122;5.502;2024-03-23T11:01:54;8.43;;;1.42;;
18610;SDS011;9435;52.122;5.502;2024-03-23T11:04:30;6.53;;;1.40;;
18610;SDS011;9435;52.122;5.502;2024-03-23T11:06:59;6.57;;;1.25;;
18610;SDS011;9435;52.122;5.502;2024-03-23T11:09:41;7.68;;;1.30;;
18610;SDS011;9435;52.122;5.502;2024-03-23T11:12:33;8.52;;;1.40;;
18610;SDS011;9435;52.122;5.502;2024-03-23T11:15:00;7.13;;;1.20;;
18610;SDS011;9435;52.122;5.502;2024-03-23T11:17:28;5.95;;;1.17;;
18610;SDS011;9435;52.122;5.502;2024-03-23T11:19:55;10.90;;;1.60;;
18610;SDS011;9435;52.122;5.502;2024-03-23T11:22:39;12.18;;;1.88;;
18610;SDS011;9435;52.122;5.502;2024-03-23T11:25:15;9.95;;;1.80;;
18610;SDS011;9435;52.122;5.502;2024-03-23T11:27:45;7.15;;;1.60;;
18610;SDS011;9435;52.122;5.502;2024-03-23T11:30:15;9.73;;;1.80;;
18610;SDS011;9435;52.122;5.502;2024-03-23T11:32:44;9.73;;;1.65;;
18610;SDS011;9435;52.122;5.502;2024-03-23T11:35:10;8.68;;;1.67;;
18610;SDS011;9435;52.122;5.502;2024-03-23T11:38:01;10.45;;;1.60;;
18610;SDS011;9435;52.122;5.502;2024-03-23T11:40:28;9.30;;;1.60;;
18610;SDS011;9435;52.122;5.502;2024-03-23T11:42:57;11.57;;;1.67;;
18610;SDS011;9435;52.122;5.502;2024-03-23T11:45:24;11.43;;;1.65;;
18610;SDS011;9435;52.122;5.502;2024-03-23T11:48:01;16.88;;;1.75;;
18610;SDS011;9435;52.122;5.502;2024-03-23T11:50:28;11.38;;;1.70;;
18610;SDS011;9435;52.122;5.502;2024-03-23T11:53:05;13.73;;;1.70;;
18610;SDS011;9435;52.122;5.502;2024-03-23T11:55:38;9.88;;;1.80;;
18610;SDS011;9435;52.122;5.502;2024-03-23T11:58:08;9.80;;;1.40;;
18610;SDS011;9435;52.122;5.502;2024-03-23T12:00:34;13.50;;;1.73;;
18610;SDS011;9435;52.122;5.502;2024-03-23T12:03:01;9.40;;;2.08;;
18610;SDS011;9435;52.122;5.502;2024-03-23T12:05:27;15.00;;;1.80;;
18610;SDS011;9435;52.122;5.502;2024-03-23T12:07:55;11.90;;;1.67;;
18610;SDS011;9435;52.122;5.502;2024-03-23T12:10:40;8.98;;;1.85;;
18610;SDS011;9435;52.122;5.502;2024-03-23T12:13:11;11.50;;;1.50;;
18610;SDS011;9435;52.122;5.502;2024-03-23T12:15:37;12.98;;;1.90;;
18610;SDS011;9435;52.122;5.502;2024-03-23T12:18:07;9.80;;;1.60;;
18610;SDS011;9435;52.122;5.502;2024-03-23T12:20:33;11.00;;;1.67;;
18610;SDS011;9435;52.122;5.502;2024-03-23T12:23:10;10.98;;;1.40;;
18610;SDS011;9435;52.122;5.502;2024-03-23T12:25:38;12.10;;;1.55;;
18610;SDS011;9435;52.122;5.502;2024-03-23T12:28:05;9.00;;;1.90;;
18610;SDS011;9435;52.122;5.502;2024-03-23T12:30:35;8.52;;;1.48;;
18610;SDS011;9435;52.122;5.502;2024-03-23T12:33:04;9.35;;;1.48;;
18610;SDS011;9435;52.122;5.502;2024-03-23T12:35:31;6.63;;;1.38;;
18610;SDS011;9435;52.122;5.502;2024-03-23T12:37:58;7.93;;;1.70;;
18610;SDS011;9435;52.122;5.502;2024-03-23T12:40:25;11.27;;;1.73;;
18610;SDS011;9435;52.122;5.502;2024-03-23T12:42:52;12.23;;;2.03;;
18610;SDS011;9435;52.122;5.502;2024-03-23T12:45:19;11.95;;;1.92;;
18610;SDS011;9435;52.122;5.502;2024-03-23T12:47:47;9.65;;;1.80;;
18610;SDS011;9435;52.122;5.502;2024-03-23T12:50:14;9.40;;;1.50;;
18610;SDS011;9435;52.122;5.502;2024-03-23T12:52:40;11.82;;;1.73;;
18610;SDS011;9435;52.122;5.502;2024-03-23T12:55:07;9.75;;;1.50;;
18610;SDS011;9435;52.122;5.502;2024-03-23T12:57:33;11.40;;;1.40;;
18610;SDS011;9435;52.122;5.502;2024-03-23T13:00:01;9.45;;;1.35;;
18610;SDS011;9435;52.122;5.502;2024-03-23T13:02:29;8.60;;;1.60;;
18610;SDS011;9435;52.122;5.502;2024-03-23T13:04:57;9.15;;;1.45;;
18610;SDS011;9435;52.122;5.502;2024-03-23T13:07:23;9.82;;;1.52;;
18610;SDS011;9435;52.122;5.502;2024-03-23T13:09:51;8.13;;;1.55;;
18610;SDS011;9435;52.122;5.502;2024-03-23T13:12:17;11.45;;;1.88;;
18610;SDS011;9435;52.122;5.502;2024-03-23T13:14:45;8.98;;;1.60;;
18610;SDS011;9435;52.122;5.502;2024-03-23T13:17:11;7.38;;;1.27;;
18610;SDS011;9435;52.122;5.502;2024-03-23T13:19:39;8.07;;;1.40;;
18610;SDS011;9435;52.122;5.502;2024-03-23T13:22:06;9.05;;;1.58;;
18610;SDS011;9435;52.122;5.502;2024-03-23T13:24:36;15.95;;;1.80;;
18610;SDS011;9435;52.122;5.502;2024-03-23T13:27:03;7.78;;;1.25;;
18610;SDS011;9435;52.122;5.502;2024-03-23T13:29:32;6.30;;;1.30;;
18610;SDS011;9435;52.122;5.502;2024-03-23T13:32:00;8.60;;;1.52;;
18610;SDS011;9435;52.122;5.502;2024-03-23T13:34:26;5.40;;;0.95;;
18610;SDS011;9435;52.122;5.502;2024-03-23T13:36:54;4.15;;;0.88;;
18610;SDS011;9435;52.122;5.502;2024-03-23T13:39:24;3.72;;;0.52;;
18610;SDS011;9435;52.122;5.502;2024-03-23T13:41:52;3.40;;;0.60;;
18610;SDS011;9435;52.122;5.502;2024-03-23T13:44:19;3.60;;;0.50;;
18610;SDS011;9435;52.122;5.502;2024-03-23T13:46:46;5.32;;;0.60;;
18610;SDS011;9435;52.122;5.502;2024-03-23T13:49:24;3.13;;;0.50;;
18610;SDS011;9435;52.122;5.502;2024-03-23T13:51:54;3.35;;;0.65;;
18610;SDS011;9435;52.122;5.502;2024-03-23T13:54:21;5.03;;;0.80;;
18610;SDS011;9435;52.122;5.502;2024-03-23T13:56:50;4.05;;;0.73;;
18610;SDS011;9435;52.122;5.502;2024-03-23T13:59:17;6.80;;;0.90;;
18610;SDS011;9435;52.122;5.502;2024-03-23T14:01:44;8.57;;;0.93;;
18610;SDS011;9435;52.122;5.502;2024-03-23T14:04:10;7.78;;;1.08;;
18610;SDS011;9435;52.122;5.502;2024-03-23T14:06:37;7.63;;;1.10;;
18610;SDS011;9435;52.122;5.502;2024-03-23T14:09:04;8.52;;;1.35;;
18610;SDS011;9435;52.122;5.502;2024-03-23T14:11:33;7.85;;;1.20;;
18610;SDS011;9435;52.122;5.502;2024-03-23T14:14:01;10.38;;;1.17;;
18610;SDS011;9435;52.122;5.502;2024-03-23T14:16:29;9.27;;;1.40;;
18610;SDS011;9435;52.122;5.502;2024-03-23T14:18:55;10.27;;;1.33;;
18610;SDS011;9435;52.122;5.502;2024-03-23T14:21:22;10.38;;;1.38;;
18610;SDS011;9435;52.122;5.502;2024-03-23T14:23:49;8.70;;;1.40;;
18610;SDS011;9435;52.122;5.502;2024-03-23T14:26:16;11.43;;;1.35;;
18610;SDS011;9435;52.122;5.502;2024-03-23T14:28:42;9.38;;;1.42;;
18610;SDS011;9435;52.122;5.502;2024-03-23T14:31:10;10.93;;;1.45;;
18610;SDS011;9435;52.122;5.502;2024-03-23T14:33:37;11.65;;;1.92;;
18610;SDS011;9435;52.122;5.502;2024-03-23T14:36:06;7.78;;;1.10;;
18610;SDS011;9435;52.122;5.502;2024-03-23T14:38:33;8.73;;;1.60;;
18610;SDS011;9435;52.122;5.502;2024-03-23T14:41:00;6.90;;;1.27;;
18610;SDS011;9435;52.122;5.502;2024-03-23T14:43:27;7.43;;;1.38;;
18610;SDS011;9435;52.122;5.502;2024-03-23T14:46:07;11.32;;;1.75;;
18610;SDS011;9435;52.122;5.502;2024-03-23T14:48:36;10.52;;;1.40;;
18610;SDS011;9435;52.122;5.502;2024-03-23T14:51:04;10.40;;;1.60;;
18610;SDS011;9435;52.122;5.502;2024-03-23T14:53:31;13.70;;;1.88;;
18610;SDS011;9435;52.122;5.502;2024-03-23T14:55:59;10.85;;;1.58;;
18610;SDS011;9435;52.122;5.502;2024-03-23T14:58:26;8.27;;;1.20;;
18610;SDS011;9435;52.122;5.502;2024-03-23T15:00:57;8.27;;;1.33;;
18610;SDS011;9435;52.122;5.502;2024-03-23T15:03:26;9.75;;;1.38;;
18610;SDS011;9435;52.122;5.502;2024-03-23T15:05:54;9.60;;;1.60;;
18610;SDS011;9435;52.122;5.502;2024-03-23T15:08:21;7.72;;;1.13;;
18610;SDS011;9435;52.122;5.502;2024-03-23T15:10:49;7.45;;;1.30;;
18610;SDS011;9435;52.122;5.502;2024-03-23T15:13:15;8.15;;;1.20;;
18610;SDS011;9435;52.122;5.502;2024-03-23T15:15:42;9.20;;;1.40;;
18610;SDS011;9435;52.122;5.502;2024-03-23T15:18:10;8.30;;;1.40;;
18610;SDS011;9435;52.122;5.502;2024-03-23T15:20:37;9.88;;;1.20;;
18610;SDS011;9435;52.122;5.502;2024-03-23T15:23:05;7.13;;;1.40;;
18610;SDS011;9435;52.122;5.502;2024-03-23T15:25:33;7.65;;;1.20;;
18610;SDS011;9435;52.122;5.502;2024-03-23T15:27:59;5.68;;;1.10;;
18610;SDS011;9435;52.122;5.502;2024-03-23T15:30:27;11.10;;;1.30;;
18610;SDS011;9435;52.122;5.502;2024-03-23T15:32:53;8.13;;;1.10;;
18610;SDS011;9435;52.122;5.502;2024-03-23T15:35:20;9.00;;;1.38;;
18610;SDS011;9435;52.122;5.502;2024-03-23T15:37:49;5.32;;;1.10;;
18610;SDS011;9435;52.122;5.502;2024-03-23T15:40:19;8.15;;;1.23;;
18610;SDS011;9435;52.122;5.502;2024-03-23T15:42:53;6.97;;;1.30;;
18610;SDS011;9435;52.122;5.502;2024-03-23T15:45:20;6.30;;;1.13;;